Eureka, CA

10:21 PM PDT die 24o June, anno 2017 (GMT -0700)
20-30 Park | | Change Station
Active Advisory: Coastal Flood Advisory Active Notice: Coastal Flood Advisory

Elev 85 ft 40.79 °N, 124.17 °W | Updated 9 seconds ago

Plerumque Nubila
Plerumque Nubila
52.2 °F
Feels Like 52.2 °F
N
0.0
Ventus Variabilis Ventus from Inter Austrum et Zephyrum
Gusts 0.0 mph

Hodie
High -- | Low -- °F
--% Chance of Precip.
Yesterday
High -- | Low -- °F
Precip. -- in
Pressio 29.95 in
Visibilitas 4.0 milia passuum
Clouds Aequaliter Nubila 400 ft
Frigus in quo Ros apparet 48 °F
Umor 87%
Rainfall 0.00 in
Snow Depth Not available.
5:46 AM 8:52 PM
New, 2% visible
SPECI KACV 250509Z AUTO 00000KT 4SM BR OVC004 12/12 A2995 RMK AO2 CIG 001V005 T01170117
Pressio 29.95 in
Visibilitas 4.0 milia passuum
Clouds Aequaliter Nubila 400 ft
Frigus in quo Ros apparet 48 °F
Umor 87%
Rainfall 0.00 in
Snow Depth Not available.
5:46 AM 8:52 PM
New, 2% visible
SPECI KACV 250509Z AUTO 00000KT 4SM BR OVC004 12/12 A2995 RMK AO2 CIG 001V005 T01170117

Get Your Daily Forecast Email!

Thanks for signing up!

Be on the lookout for a verification email in your inbox.

You'll start receiving severe weather alerts in your inbox..

×

10-Day Weather Forecast

Almanac

Astronomy

Jun. 24, 2017 Rise Set
Actual Time
Civil Twilight
Nautical Twilight
Astronomical Twilight
Moon
Length Of Visible Light
Length of Day
Tomorrow will be .
, % of the Moon is Illuminated

Today's Extremes

State Highs State Lows

Community

WunderPhotos

Category 6

Welcome to Category 6. This is the collective home for Weather Underground's featured writeups by Dr. Jeff Masters (right), Bob Henson (left), Chris Burt, and other regular contributors.

Nearby

Air Quality

  Air Quality AQ Index Pollutant
Not available.

Snow Depth

Station Depth Elevation

Earthquake Activity

City Distance Mag. Time & Date
Minimum magnitude displayed is 2.5.

Coastal Water Temperatures

Locus Calor

Stations

Nearby Weather Stations

Station Location Temp Frigus Venti Frigus in quo Ros apparet Umor Ventus Precip. Elev Renovata Type
                   

Watches & Warnings

Coastal Flood Advisory
Issued: 9:55 PM PDT Jun. 24, 2017 – National Weather Service

... Coastal flood advisory now in effect until 3 am PDT Sunday...

* coastal flooding... high astronomical tides will cause minor
flooding in some low lying areas at King Salmon in Humboldt
Bay. The water level is expected to peak around 8.8 feet MLLW at
the North Spit tide gauge.

* Timing... high tide is at 12:36 am PDT at the Humboldt Bay
North Spit tide gauge. Flooding may begin an hour before or
continue for an hour or two after high tide.

* Impacts... low lying areas will experience minor flooding at
roadways in King Salmon.

Precautionary/preparedness actions...

A coastal flood advisory indicates that onshore winds and tides
will combine to generate flooding of low areas along the shore.